GMMC/CAS METAR and TAF weather

Enter ICAO airport designator
Station Type Date Time Source
GMMC METAR 2019/08/21 20:00 UTC NOAA

GMMC 212000Z 02004KT 9999 FEW016 21/19 Q1015


Station Type Date Time Source
GMMC Decoded METAR 2019/08/21 20:00 UTC NOAA

Station name not available
Aug 21, 2019 - 04:00 PM EDT / 2019.08.21 2000 UTC
Wind: from the NNE (020 degrees) at 5 MPH (4 KT):0
Visibility: greater than 7 mile(s):0
Sky conditions: mostly clear
Temperature: 69 F (21 C)
Dew Point: 66 F (19 C)
Relative Humidity: 88%
Pressure (altimeter): 29.97 in. Hg (1015 hPa)
ob: GMMC 212000Z 02004KT 9999 FEW016 21/19 Q1015
cycle: 20

Station Type Date Time Source
GMMC TAF 2016/05/22 17:00 UTC NOAA

FTMC31 GMMC 221700 RRA TAF LPPT 221700Z 2218/2324 34013KT CAVOK
BECMG 2221/2224 34007KT
BECMG 2310/2312 VRB03KT

Example: see airport list